createdAt,value
2022-09-10T00:01:29.346Z,16.73
2022-09-10T00:04:26.943Z,16.66
2022-09-10T00:07:24.287Z,16.76
2022-09-10T00:10:21.354Z,16.80
2022-09-10T00:13:21.751Z,16.75
2022-09-10T00:16:19.389Z,16.78
2022-09-10T00:19:16.818Z,16.84
2022-09-10T00:22:14.567Z,16.86
2022-09-10T00:25:12.283Z,16.81
2022-09-10T00:28:09.496Z,16.87
2022-09-10T00:31:06.396Z,16.97
2022-09-10T00:34:03.551Z,16.97
2022-09-10T00:37:00.529Z,16.81
2022-09-10T00:39:57.603Z,16.92
2022-09-10T00:42:54.957Z,16.84
2022-09-10T00:45:54.716Z,16.80
2022-09-10T00:48:54.269Z,16.85
2022-09-10T00:51:52.950Z,16.88
2022-09-10T00:54:50.554Z,16.95
2022-09-10T00:57:47.813Z,16.98
2022-09-10T01:00:45.890Z,16.92
2022-09-10T01:03:43.884Z,16.93
2022-09-10T01:06:42.169Z,16.94
2022-09-10T01:09:39.763Z,16.83
2022-09-10T01:13:22.845Z,16.85
2022-09-10T01:16:33.264Z,16.91
2022-09-10T01:19:51.899Z,16.83
2022-09-10T01:23:00.574Z,16.90
2022-09-10T01:26:21.706Z,16.88
2022-09-10T01:29:32.610Z,16.90
2022-09-10T01:32:53.782Z,16.83
2022-09-10T01:36:05.652Z,16.90
2022-09-10T01:39:02.689Z,16.88
2022-09-10T01:41:59.365Z,16.92
2022-09-10T01:45:01.167Z,16.71
2022-09-10T01:48:20.012Z,16.73
2022-09-10T01:51:41.370Z,16.61
2022-09-10T01:55:03.346Z,16.70
2022-09-10T01:58:13.347Z,16.86
2022-09-10T02:01:29.419Z,16.73
2022-09-10T02:04:26.580Z,16.75
2022-09-10T02:07:24.236Z,16.90
2022-09-10T02:10:22.796Z,17.02
2022-09-10T02:13:22.330Z,17.02
2022-09-10T02:16:39.830Z,17.02
2022-09-10T02:19:37.490Z,17.06
2022-09-10T02:22:36.486Z,17.14
2022-09-10T02:25:35.254Z,16.98
2022-09-10T02:28:33.941Z,17.07
2022-09-10T02:31:31.897Z,17.27
2022-09-10T02:34:30.736Z,17.15
2022-09-10T02:37:28.493Z,17.15
2022-09-10T02:40:25.671Z,17.16
2022-09-10T02:43:22.631Z,17.10
2022-09-10T02:46:19.692Z,17.08
2022-09-10T02:49:18.115Z,17.13
2022-09-10T02:52:15.620Z,17.24
2022-09-10T02:55:13.261Z,17.19
2022-09-10T02:58:13.572Z,17.07
2022-09-10T03:01:14.537Z,17.12
2022-09-10T03:04:12.255Z,17.27
2022-09-10T03:07:09.746Z,17.28
2022-09-10T03:10:07.818Z,17.25
2022-09-10T03:13:05.554Z,17.26
2022-09-10T03:16:04.308Z,17.45
2022-09-10T03:19:03.507Z,17.53
2022-09-10T03:22:01.449Z,17.53
2022-09-10T03:24:59.293Z,17.57
2022-09-10T03:27:56.530Z,17.47
2022-09-10T03:30:54.596Z,17.34
2022-09-10T03:33:51.569Z,17.32
2022-09-10T03:36:49.413Z,17.31
2022-09-10T03:39:47.519Z,17.40
2022-09-10T03:42:46.509Z,17.35
2022-09-10T03:45:43.732Z,17.35
2022-09-10T03:48:43.367Z,17.36
2022-09-10T03:51:40.429Z,17.35
2022-09-10T03:54:37.560Z,17.17
2022-09-10T03:57:34.629Z,17.08
2022-09-10T04:00:31.535Z,16.94
2022-09-10T04:03:30.714Z,16.84
2022-09-10T04:06:27.987Z,16.86
2022-09-10T04:09:25.537Z,16.90
2022-09-10T04:12:22.622Z,16.94
2022-09-10T04:15:20.942Z,17.02
2022-09-10T04:18:18.454Z,16.93
2022-09-10T04:21:16.468Z,17.01
2022-09-10T04:24:16.734Z,17.03
2022-09-10T04:27:13.865Z,17.14
2022-09-10T04:30:12.172Z,17.01
2022-09-10T04:33:09.635Z,17.12
2022-09-10T04:36:06.980Z,17.16
2022-09-10T04:39:08.875Z,17.04
2022-09-10T04:42:09.853Z,17.01
2022-09-10T04:45:08.021Z,17.09
2022-09-10T04:48:07.265Z,17.09
2022-09-10T04:51:16.107Z,16.98
2022-09-10T04:54:15.674Z,16.88
2022-09-10T04:57:18.708Z,16.89
2022-09-10T05:00:16.937Z,16.77
2022-09-10T05:03:14.883Z,16.80
2022-09-10T05:06:14.849Z,16.85
2022-09-10T05:09:12.187Z,16.77
2022-09-10T05:12:10.653Z,16.84
2022-09-10T05:15:08.467Z,16.93
2022-09-10T05:18:05.397Z,16.88
2022-09-10T05:21:06.192Z,16.84
2022-09-10T05:24:05.936Z,16.96
2022-09-10T05:27:03.774Z,17.07
2022-09-10T05:30:02.151Z,17.09
2022-09-10T05:33:00.864Z,17.24
2022-09-10T05:35:59.484Z,17.24
2022-09-10T05:38:58.291Z,17.32
2022-09-10T05:41:57.320Z,17.20
2022-09-10T05:44:54.637Z,17.13
2022-09-10T05:47:53.025Z,17.12
2022-09-10T05:50:53.587Z,16.96
2022-09-10T05:53:50.914Z,16.89
2022-09-10T05:56:48.994Z,17.03
2022-09-10T05:59:46.915Z,17.00
2022-09-10T06:02:45.351Z,16.99
2022-09-10T06:05:55.765Z,17.11
2022-09-10T06:08:58.834Z,17.25
2022-09-10T06:12:13.676Z,17.30
2022-09-10T06:15:11.641Z,17.37
2022-09-10T06:18:09.389Z,17.34
2022-09-10T06:21:17.723Z,17.33
2022-09-10T06:24:18.412Z,17.29
2022-09-10T06:27:17.082Z,17.36
2022-09-10T06:30:14.503Z,17.47
2022-09-10T06:33:16.932Z,17.62
2022-09-10T06:36:14.748Z,17.68
2022-09-10T06:39:11.737Z,17.68
2022-09-10T06:42:20.837Z,17.57
2022-09-10T06:45:28.284Z,17.50
2022-09-10T06:48:53.755Z,17.46
2022-09-10T06:51:51.197Z,17.55
2022-09-10T06:54:48.786Z,17.67
2022-09-10T06:57:59.810Z,17.78
2022-09-10T07:00:58.593Z,17.63
2022-09-10T07:03:57.063Z,17.59
2022-09-10T07:06:55.168Z,17.72
2022-09-10T07:09:52.518Z,17.69
2022-09-10T07:12:50.220Z,17.64
2022-09-10T07:15:49.759Z,17.65
2022-09-10T07:18:49.416Z,17.97
2022-09-10T07:21:47.772Z,18.01
2022-09-10T07:24:49.314Z,18.20
2022-09-10T07:27:57.656Z,18.15
2022-09-10T07:30:56.530Z,18.10
2022-09-10T07:33:55.497Z,18.07
2022-09-10T07:36:56.761Z,18.08
2022-09-10T07:39:54.845Z,17.80
2022-09-10T07:42:52.487Z,17.67
2022-09-10T07:45:49.862Z,17.86
2022-09-10T07:48:48.743Z,18.10
2022-09-10T07:51:47.043Z,18.25
2022-09-10T07:54:44.922Z,18.13
2022-09-10T07:57:41.881Z,18.19
2022-09-10T08:00:40.740Z,18.18
2022-09-10T08:03:41.087Z,18.17
2022-09-10T08:06:40.850Z,18.08
2022-09-10T08:09:39.119Z,17.93
2022-09-10T08:12:39.886Z,17.85
2022-09-10T08:15:41.670Z,18.20
2022-09-10T08:18:39.112Z,18.50
2022-09-10T08:21:37.142Z,18.45
2022-09-10T08:24:35.746Z,18.49
2022-09-10T08:27:33.824Z,18.38
2022-09-10T08:30:32.863Z,18.34
2022-09-10T08:33:31.712Z,18.26
2022-09-10T08:36:28.830Z,18.03
2022-09-10T08:39:25.729Z,18.11
2022-09-10T08:42:27.915Z,18.27
2022-09-10T08:45:29.323Z,18.33
2022-09-10T08:48:27.574Z,18.38
2022-09-10T08:51:27.540Z,18.21
2022-09-10T08:54:28.118Z,18.43
2022-09-10T08:57:32.812Z,18.42
2022-09-10T09:00:34.249Z,18.56
2022-09-10T09:03:40.684Z,18.64
2022-09-10T09:06:44.601Z,18.90
2022-09-10T09:09:42.796Z,19.03
2022-09-10T09:12:46.542Z,19.44
2022-09-10T09:15:51.872Z,19.54
2022-09-10T09:18:55.097Z,19.30
2022-09-10T09:21:56.491Z,19.36
2022-09-10T09:25:03.255Z,19.64
2022-09-10T09:28:01.112Z,19.73
2022-09-10T09:31:10.644Z,19.90
2022-09-10T09:34:25.975Z,19.62
2022-09-10T09:37:29.469Z,19.50
2022-09-10T09:40:33.722Z,19.16
2022-09-10T09:43:49.535Z,19.42
2022-09-10T09:46:49.401Z,19.79
2022-09-10T09:49:47.191Z,20.02
2022-09-10T09:52:43.917Z,19.98
2022-09-10T09:55:48.859Z,19.86
2022-09-10T09:58:49.916Z,19.82
2022-09-10T10:01:47.036Z,19.97
2022-09-10T10:05:23.341Z,19.72
2022-09-10T10:08:43.533Z,19.62
2022-09-10T10:11:52.234Z,19.87
2022-09-10T10:14:51.398Z,19.90
2022-09-10T10:17:49.658Z,19.82
2022-09-10T10:20:47.001Z,19.81
2022-09-10T10:23:44.447Z,19.96
2022-09-10T10:26:44.146Z,20.32
2022-09-10T10:29:40.740Z,20.38
2022-09-10T10:32:51.164Z,20.47
2022-09-10T10:36:15.377Z,20.85
2022-09-10T10:39:21.934Z,21.22
2022-09-10T10:42:29.572Z,21.25
2022-09-10T10:45:40.466Z,21.31
2022-09-10T10:49:23.149Z,21.14
2022-09-10T10:52:25.950Z,20.67
2022-09-10T10:55:25.219Z,20.60
2022-09-10T10:58:34.114Z,20.75
2022-09-10T11:01:35.049Z,20.62
2022-09-10T11:04:40.147Z,20.68
2022-09-10T11:07:42.129Z,20.69
2022-09-10T11:10:42.023Z,20.74
2022-09-10T11:14:03.345Z,20.81
2022-09-10T11:17:04.449Z,21.05
2022-09-10T11:20:29.666Z,20.99
2022-09-10T11:23:48.953Z,20.97
2022-09-10T11:26:49.705Z,20.97
2022-09-10T11:30:04.209Z,20.88
2022-09-10T11:33:19.314Z,20.94
2022-09-10T11:36:22.330Z,21.02
2022-09-10T11:39:24.343Z,20.79
2022-09-10T11:42:30.670Z,20.87
2022-09-10T11:45:39.693Z,20.67
2022-09-10T11:48:40.423Z,20.52
2022-09-10T11:51:37.876Z,20.47
2022-09-10T11:54:35.148Z,20.46
2022-09-10T11:57:53.719Z,20.53
2022-09-10T12:01:08.934Z,20.60
2022-09-10T12:04:24.858Z,20.83
2022-09-10T12:07:21.759Z,20.73
2022-09-10T12:10:43.787Z,20.83
2022-09-10T12:13:41.740Z,21.20
2022-09-10T12:17:01.042Z,21.16
2022-09-10T12:19:58.764Z,20.76
2022-09-10T12:22:55.994Z,20.91
2022-09-10T12:26:10.406Z,21.16
2022-09-10T12:29:33.222Z,21.20
2022-09-10T12:32:30.348Z,21.11
2022-09-10T12:35:30.453Z,21.14
2022-09-10T12:39:18.492Z,21.50
2022-09-10T12:42:29.089Z,21.85
2022-09-10T12:46:07.449Z,21.84
2022-09-10T12:49:06.784Z,21.45
2022-09-10T12:52:04.069Z,21.26
2022-09-10T12:55:22.888Z,21.46
2022-09-10T12:58:24.237Z,21.41
2022-09-10T13:01:29.785Z,21.59
2022-09-10T13:04:30.724Z,21.48
2022-09-10T13:07:34.324Z,21.56
2022-09-10T13:10:31.254Z,21.55
2022-09-10T13:13:51.035Z,21.68
2022-09-10T13:16:48.569Z,21.67
2022-09-10T13:19:45.751Z,21.74
2022-09-10T13:23:09.211Z,22.07
2022-09-10T13:26:39.980Z,22.27
2022-09-10T13:29:41.910Z,22.13
2022-09-10T13:32:41.919Z,21.84
2022-09-10T13:35:57.584Z,21.90
2022-09-10T13:39:08.364Z,22.15
2022-09-10T13:42:31.276Z,22.13
2022-09-10T13:45:41.778Z,21.99
2022-09-10T13:48:51.681Z,21.95
2022-09-10T13:51:59.234Z,22.18
2022-09-10T13:54:56.856Z,22.26
2022-09-10T13:58:17.466Z,22.38
2022-09-10T14:01:15.070Z,22.46
2022-09-10T14:04:43.023Z,22.48
2022-09-10T14:07:42.334Z,22.45
2022-09-10T14:11:44.131Z,22.52
2022-09-10T14:14:43.533Z,22.35
2022-09-10T14:17:43.146Z,22.15
2022-09-10T14:20:40.153Z,21.91
2022-09-10T14:23:40.340Z,22.09
2022-09-10T14:26:37.090Z,22.17
2022-09-10T14:29:34.199Z,22.27
2022-09-10T14:32:32.450Z,22.20
2022-09-10T14:35:39.513Z,22.16
2022-09-10T14:38:38.165Z,22.21
2022-09-10T14:41:34.905Z,22.27
2022-09-10T14:44:32.195Z,22.31
2022-09-10T14:47:35.874Z,21.74
2022-09-10T14:50:34.747Z,21.69
2022-09-10T14:53:32.179Z,21.66
2022-09-10T14:56:43.918Z,21.79
2022-09-10T14:59:42.565Z,21.71
2022-09-10T15:02:40.771Z,21.63
2022-09-10T15:05:39.534Z,21.73
2022-09-10T15:08:37.252Z,21.89
2022-09-10T15:11:34.881Z,21.93
2022-09-10T15:14:32.689Z,22.18
2022-09-10T15:17:30.247Z,21.96
2022-09-10T15:20:28.116Z,22.07
2022-09-10T15:23:25.247Z,22.25
2022-09-10T15:26:22.011Z,22.35
2022-09-10T15:29:19.171Z,22.02
2022-09-10T15:32:18.284Z,21.90
2022-09-10T15:35:15.115Z,21.75
2022-09-10T15:38:16.128Z,21.94
2022-09-10T15:41:13.976Z,22.00
2022-09-10T15:44:11.672Z,22.05
2022-09-10T15:47:10.112Z,22.06
2022-09-10T15:50:09.369Z,22.08
2022-09-10T15:53:10.425Z,22.06
2022-09-10T15:56:10.051Z,21.93
2022-09-10T15:59:08.668Z,21.92
2022-09-10T16:02:06.561Z,22.12
2022-09-10T16:05:05.316Z,22.26
2022-09-10T16:08:02.397Z,22.13
2022-09-10T16:10:59.509Z,22.33
2022-09-10T16:13:58.939Z,22.30
2022-09-10T16:16:58.808Z,22.18
2022-09-10T16:19:56.427Z,22.13
2022-09-10T16:22:53.790Z,22.05
2022-09-10T16:25:54.970Z,22.18
2022-09-10T16:28:53.892Z,22.28
2022-09-10T16:31:51.297Z,22.24
2022-09-10T16:34:48.301Z,22.20
2022-09-10T16:37:45.319Z,22.11
2022-09-10T16:40:42.560Z,22.14
2022-09-10T16:43:39.871Z,22.05
2022-09-10T16:46:38.378Z,21.96
2022-09-10T16:49:35.182Z,21.90
2022-09-10T16:52:34.169Z,21.73
2022-09-10T16:55:31.358Z,21.66
2022-09-10T16:58:31.882Z,21.58
2022-09-10T17:01:32.500Z,21.48
2022-09-10T17:04:29.606Z,21.29
2022-09-10T17:07:27.502Z,21.14
2022-09-10T17:10:27.041Z,20.92
2022-09-10T17:13:24.378Z,20.89
2022-09-10T17:16:21.279Z,20.74
2022-09-10T17:19:26.594Z,20.70
2022-09-10T17:22:24.416Z,20.67
2022-09-10T17:25:21.478Z,20.55
2022-09-10T17:28:18.205Z,20.60
2022-09-10T17:31:15.505Z,20.65
2022-09-10T17:34:13.204Z,20.64
2022-09-10T17:37:10.180Z,20.65
2022-09-10T17:40:08.032Z,20.61
2022-09-10T17:43:05.248Z,20.52
2022-09-10T17:46:06.243Z,20.58
2022-09-10T17:49:03.208Z,20.65
2022-09-10T17:52:00.456Z,20.84
2022-09-10T17:54:57.863Z,20.83
2022-09-10T17:57:55.305Z,20.71
2022-09-10T18:00:57.869Z,20.69
2022-09-10T18:03:55.295Z,20.67
2022-09-10T18:06:52.795Z,20.71
2022-09-10T18:09:50.300Z,20.73
2022-09-10T18:12:47.224Z,20.73
2022-09-10T18:15:46.440Z,20.61
2022-09-10T18:18:47.176Z,20.49
2022-09-10T18:21:45.639Z,20.52
2022-09-10T18:24:43.274Z,20.49
2022-09-10T18:27:41.660Z,20.43
2022-09-10T18:30:39.261Z,20.32
2022-09-10T18:33:38.440Z,20.20
2022-09-10T18:36:35.711Z,20.01
2022-09-10T18:39:33.708Z,19.91
2022-09-10T18:42:31.368Z,19.82
2022-09-10T18:45:28.282Z,19.87
2022-09-10T18:48:25.219Z,19.84
2022-09-10T18:51:23.108Z,19.91
2022-09-10T18:54:20.635Z,19.90
2022-09-10T18:57:17.626Z,20.07
2022-09-10T19:00:14.655Z,19.92
2022-09-10T19:03:11.462Z,20.03
2022-09-10T19:06:13.432Z,20.10
2022-09-10T19:09:12.180Z,20.07
2022-09-10T19:12:09.318Z,20.00
2022-09-10T19:15:07.305Z,20.13
2022-09-10T19:18:06.479Z,20.25
2022-09-10T19:21:05.507Z,20.23
2022-09-10T19:24:03.266Z,20.12
2022-09-10T19:27:00.540Z,19.96
2022-09-10T19:29:57.365Z,19.97
2022-09-10T19:32:54.753Z,20.35
2022-09-10T19:35:56.487Z,20.21
2022-09-10T19:38:55.278Z,20.02
2022-09-10T19:41:52.510Z,19.90
2022-09-10T19:44:49.525Z,19.85
2022-09-10T19:47:46.196Z,19.79
2022-09-10T19:50:43.492Z,19.65
2022-09-10T19:53:41.147Z,19.56
2022-09-10T19:56:41.235Z,19.47
2022-09-10T19:59:39.027Z,19.45
2022-09-10T20:02:36.447Z,19.49
2022-09-10T20:05:36.505Z,19.60
2022-09-10T20:08:36.540Z,19.79
2022-09-10T20:11:35.154Z,20.12
2022-09-10T20:14:32.858Z,20.19
2022-09-10T20:17:30.620Z,20.42
2022-09-10T20:20:29.108Z,20.54
2022-09-10T20:23:26.554Z,20.64
2022-09-10T20:26:24.440Z,20.70
2022-09-10T20:29:23.160Z,20.69
2022-09-10T20:32:20.453Z,20.71
2022-09-10T20:35:17.394Z,20.75
2022-09-10T20:38:14.633Z,20.71
2022-09-10T20:41:15.957Z,20.64
2022-09-10T20:44:15.729Z,20.51
2022-09-10T20:47:13.194Z,20.49
2022-09-10T20:50:11.746Z,20.49
2022-09-10T20:53:08.327Z,20.53
2022-09-10T20:56:07.058Z,20.49
2022-09-10T20:59:04.667Z,20.45
2022-09-10T21:02:01.551Z,20.56
2022-09-10T21:04:58.496Z,20.60
2022-09-10T21:07:56.060Z,20.63
2022-09-10T21:10:53.610Z,20.63
2022-09-10T21:13:54.034Z,20.60
2022-09-10T21:16:51.568Z,20.59
2022-09-10T21:19:48.048Z,20.55
2022-09-10T21:22:45.473Z,20.54
2022-09-10T21:25:51.379Z,20.53
2022-09-10T21:28:48.476Z,20.44
2022-09-10T21:31:45.666Z,20.34
2022-09-10T21:34:42.900Z,20.25
2022-09-10T21:37:40.621Z,20.17
2022-09-10T21:40:38.810Z,20.11
2022-09-10T21:43:36.636Z,19.99
2022-09-10T21:46:34.556Z,20.06
2022-09-10T21:49:31.667Z,20.21
2022-09-10T21:52:28.807Z,20.28
2022-09-10T21:55:28.123Z,20.31
2022-09-10T21:58:29.364Z,20.29
2022-09-10T22:01:28.260Z,20.35
2022-09-10T22:04:25.453Z,20.38
2022-09-10T22:07:22.792Z,20.41
2022-09-10T22:10:20.039Z,20.40
2022-09-10T22:13:17.852Z,20.31
2022-09-10T22:16:15.947Z,20.26
2022-09-10T22:19:15.275Z,20.17
2022-09-10T22:22:12.596Z,20.13
2022-09-10T22:25:09.792Z,20.07
2022-09-10T22:28:06.722Z,20.00
2022-09-10T22:31:15.387Z,20.07
2022-09-10T22:34:14.099Z,20.06
2022-09-10T22:37:11.691Z,20.15
2022-09-10T22:40:09.520Z,20.14
2022-09-10T22:43:06.526Z,20.10
2022-09-10T22:46:06.836Z,20.09
2022-09-10T22:49:05.192Z,20.11
2022-09-10T22:52:02.878Z,20.17
2022-09-10T22:54:59.940Z,20.19
2022-09-10T22:57:57.794Z,20.19
2022-09-10T23:00:54.647Z,20.21
2022-09-10T23:03:52.896Z,20.19
2022-09-10T23:06:50.382Z,20.11
2022-09-10T23:09:48.215Z,20.09
2022-09-10T23:12:45.568Z,20.10
2022-09-10T23:15:43.074Z,20.01
2022-09-10T23:18:41.380Z,19.66
2022-09-10T23:21:40.919Z,19.69
2022-09-10T23:24:37.361Z,19.87
2022-09-10T23:27:35.304Z,19.87
2022-09-10T23:30:33.501Z,19.82
2022-09-10T23:33:30.918Z,19.87
2022-09-10T23:36:33.025Z,19.87
2022-09-10T23:39:30.370Z,19.90
2022-09-10T23:42:27.917Z,19.85
2022-09-10T23:45:25.014Z,19.88
2022-09-10T23:48:24.001Z,19.90
2022-09-10T23:51:22.838Z,19.89
2022-09-10T23:54:19.394Z,19.75
2022-09-10T23:57:17.486Z,19.82
